createdAt,value
2023-03-30T00:02:11.063Z,9.56
2023-03-30T00:04:44.910Z,9.87
2023-03-30T00:07:18.667Z,10.24
2023-03-30T00:09:51.767Z,9.81
2023-03-30T00:12:25.113Z,9.50
2023-03-30T00:25:19.740Z,10.00
2023-03-30T00:27:59.788Z,10.05
2023-03-30T00:30:33.065Z,9.85
2023-03-30T00:33:06.802Z,9.72
2023-03-30T00:35:40.264Z,9.74
2023-03-30T00:51:55.743Z,10.90
2023-03-30T00:54:30.213Z,11.01
2023-03-30T00:57:03.820Z,10.62
2023-03-30T00:59:37.109Z,10.73
2023-03-30T01:02:10.840Z,10.40
2023-03-30T01:04:44.563Z,11.17
2023-03-30T01:07:20.774Z,10.63
2023-03-30T01:17:28.699Z,11.12
2023-03-30T01:21:07.944Z,11.46
2023-03-30T01:24:31.190Z,11.84
2023-03-30T01:27:54.773Z,11.83
2023-03-30T01:30:54.634Z,11.81
2023-03-30T01:44:05.733Z,12.07
2023-03-30T01:46:54.811Z,11.97
2023-03-30T01:49:37.564Z,11.96
2023-03-30T01:52:26.759Z,11.92
2023-03-30T01:55:09.841Z,11.88
2023-03-30T02:11:29.752Z,11.78
2023-03-30T02:14:05.660Z,11.56
2023-03-30T02:16:44.787Z,11.93
2023-03-30T02:19:19.678Z,11.74
2023-03-30T02:21:52.822Z,11.98
2023-03-30T02:24:30.285Z,11.94
2023-03-30T02:27:12.744Z,11.93
2023-03-30T02:37:34.737Z,11.73
2023-03-30T02:40:32.759Z,11.91
2023-03-30T02:43:26.204Z,12.15
2023-03-30T02:46:27.963Z,11.82
2023-03-30T02:49:16.695Z,11.72
2023-03-30T02:52:14.738Z,12.11
2023-03-30T03:05:28.772Z,12.02
2023-03-30T03:08:13.964Z,12.22
2023-03-30T03:10:55.759Z,11.90
2023-03-30T03:13:30.616Z,12.83
2023-03-30T03:16:04.754Z,12.37
2023-03-30T03:32:43.749Z,13.41
2023-03-30T03:35:24.755Z,13.57
2023-03-30T03:38:00.668Z,13.41
2023-03-30T03:40:33.741Z,13.80
2023-03-30T03:43:07.092Z,13.51
2023-03-30T03:45:40.748Z,13.83
2023-03-30T03:58:53.724Z,13.29
2023-03-30T04:01:27.163Z,13.03
2023-03-30T04:04:00.740Z,13.15
2023-03-30T04:06:34.020Z,13.48
2023-03-30T04:09:07.732Z,13.18
2023-03-30T04:11:59.831Z,13.29
2023-03-30T04:25:17.926Z,12.81
2023-03-30T04:28:19.299Z,13.05
2023-03-30T04:31:10.529Z,12.91
2023-03-30T04:33:56.713Z,12.81
2023-03-30T04:36:56.126Z,13.27
2023-03-30T04:50:55.693Z,13.53
2023-03-30T04:53:56.888Z,13.20
2023-03-30T04:56:53.179Z,13.05
2023-03-30T04:59:51.710Z,12.92
2023-03-30T05:02:34.488Z,12.96
2023-03-30T05:05:35.732Z,12.92
2023-03-30T05:18:55.729Z,13.23
2023-03-30T05:21:49.244Z,12.94
2023-03-30T05:24:42.731Z,13.11
2023-03-30T05:27:30.658Z,12.79
2023-03-30T05:30:30.805Z,12.85
2023-03-30T05:44:34.709Z,13.18
2023-03-30T05:47:28.247Z,13.03
2023-03-30T05:50:24.736Z,13.48
2023-03-30T05:53:02.101Z,13.30
2023-03-30T05:55:54.340Z,12.80
2023-03-30T06:12:55.693Z,12.79
2023-03-30T06:15:47.710Z,12.82
2023-03-30T06:18:24.413Z,12.84
2023-03-30T06:21:10.734Z,12.61
2023-03-30T06:24:11.699Z,12.70
2023-03-30T06:26:53.728Z,12.73
2023-03-30T06:40:05.713Z,11.75
2023-03-30T06:42:47.545Z,11.49
2023-03-30T06:45:34.755Z,11.62
2023-03-30T06:48:08.195Z,11.42
2023-03-30T06:50:45.716Z,11.30
2023-03-30T07:04:43.781Z,11.63
2023-03-30T07:07:28.348Z,12.06
2023-03-30T07:10:10.694Z,11.94
2023-03-30T07:12:45.593Z,11.65
2023-03-30T07:15:19.696Z,11.66
2023-03-30T07:17:53.234Z,11.66
2023-03-30T07:31:26.757Z,11.43
2023-03-30T07:34:17.864Z,11.24
2023-03-30T07:36:55.009Z,11.59
2023-03-30T07:39:37.707Z,11.75
2023-03-30T07:42:11.104Z,11.19
2023-03-30T07:44:46.722Z,11.27
2023-03-30T07:47:22.606Z,11.39
2023-03-30T08:00:14.752Z,11.88
2023-03-30T08:03:13.012Z,11.42
2023-03-30T08:05:53.522Z,12.04
2023-03-30T08:08:38.707Z,12.03
2023-03-30T08:11:12.044Z,12.58
2023-03-30T08:27:29.696Z,13.11
2023-03-30T08:30:03.499Z,13.35
2023-03-30T08:32:36.703Z,13.28
2023-03-30T08:35:10.577Z,13.12
2023-03-30T08:37:44.298Z,13.29
2023-03-30T08:40:19.730Z,13.36
2023-03-30T08:53:06.664Z,12.99
2023-03-30T08:55:52.717Z,13.37
2023-03-30T08:58:40.158Z,13.14
2023-03-30T09:01:29.793Z,13.86
2023-03-30T09:04:18.351Z,12.72
2023-03-30T09:07:05.436Z,12.52
2023-03-30T09:20:26.726Z,12.22
2023-03-30T09:23:03.002Z,12.32
2023-03-30T09:25:45.696Z,12.31
2023-03-30T09:28:31.100Z,11.95
2023-03-30T09:31:21.675Z,12.39
2023-03-30T09:45:17.766Z,12.60
2023-03-30T09:47:50.976Z,13.22
2023-03-30T09:50:29.681Z,12.72
2023-03-30T09:53:10.056Z,12.58
2023-03-30T09:56:04.798Z,12.37
2023-03-30T09:58:38.235Z,12.34
2023-03-30T10:01:17.740Z,12.04
2023-03-30T10:13:50.691Z,12.04
2023-03-30T10:16:29.220Z,12.09
2023-03-30T10:19:24.712Z,11.42
2023-03-30T10:22:00.453Z,11.51
2023-03-30T10:24:43.741Z,11.07
2023-03-30T10:27:17.212Z,10.90
2023-03-30T10:40:17.659Z,11.22
2023-03-30T10:43:03.763Z,11.14
2023-03-30T10:45:44.334Z,11.36
2023-03-30T10:48:45.713Z,10.60
2023-03-30T10:51:39.484Z,10.71
2023-03-30T11:08:08.325Z,10.47
2023-03-30T11:10:47.703Z,10.83
2023-03-30T11:13:33.681Z,10.50
2023-03-30T11:16:17.998Z,10.61
2023-03-30T11:19:06.722Z,9.94
2023-03-30T11:21:53.270Z,9.74
2023-03-30T11:32:08.718Z,9.54
2023-03-30T11:35:01.271Z,9.36
2023-03-30T11:37:51.704Z,9.90
2023-03-30T11:40:27.358Z,10.48
2023-03-30T11:43:01.677Z,10.34
2023-03-30T11:45:51.406Z,9.84
2023-03-30T11:59:11.660Z,9.76
2023-03-30T12:02:14.716Z,9.76
2023-03-30T12:04:56.969Z,9.45
2023-03-30T12:07:49.753Z,9.15
2023-03-30T12:10:34.458Z,9.05
2023-03-30T12:27:05.398Z,7.73
2023-03-30T12:30:02.362Z,7.43
2023-03-30T12:33:05.719Z,7.40
2023-03-30T12:35:58.333Z,7.31
2023-03-30T12:38:47.681Z,6.65
2023-03-30T12:41:21.053Z,7.42
2023-03-30T12:54:41.639Z,7.55
2023-03-30T12:57:51.712Z,7.60
2023-03-30T13:01:01.585Z,7.68
2023-03-30T13:03:46.716Z,7.40
2023-03-30T13:06:29.760Z,7.40
2023-03-30T13:19:33.734Z,6.54
2023-03-30T13:22:36.688Z,6.64
2023-03-30T13:25:29.228Z,6.73
2023-03-30T13:28:52.701Z,7.12
2023-03-30T13:31:49.534Z,7.09
2023-03-30T13:48:34.691Z,5.56
2023-03-30T13:51:16.189Z,5.89
2023-03-30T13:54:02.746Z,5.94
2023-03-30T13:56:42.000Z,6.32
2023-03-30T13:59:27.679Z,6.86
2023-03-30T14:02:02.433Z,7.09
2023-03-30T14:14:52.641Z,7.61
2023-03-30T14:17:33.328Z,7.32
2023-03-30T14:20:28.669Z,7.02
2023-03-30T14:23:10.657Z,7.26
2023-03-30T14:25:45.599Z,7.46
2023-03-30T14:42:00.681Z,7.30
2023-03-30T14:44:40.988Z,7.51
2023-03-30T14:47:24.707Z,8.00
2023-03-30T14:50:02.085Z,7.49
2023-03-30T14:52:47.664Z,7.46
2023-03-30T15:06:24.238Z,7.91
2023-03-30T15:09:03.166Z,7.70
2023-03-30T15:11:46.642Z,7.24
2023-03-30T15:14:22.586Z,7.49
2023-03-30T15:17:00.744Z,7.37
2023-03-30T15:19:37.376Z,7.44
2023-03-30T15:22:31.417Z,7.35
2023-03-30T15:33:01.675Z,7.04
2023-03-30T15:35:43.742Z,7.50
2023-03-30T15:38:32.729Z,6.96
2023-03-30T15:41:20.676Z,7.35
2023-03-30T15:43:57.209Z,6.87
2023-03-30T15:46:38.790Z,6.69
2023-03-30T15:59:55.759Z,6.16
2023-03-30T16:02:39.215Z,5.84
2023-03-30T16:05:26.752Z,5.81
2023-03-30T16:08:00.451Z,5.96
2023-03-30T16:10:36.674Z,6.08
2023-03-30T16:13:11.015Z,6.33
2023-03-30T16:26:31.644Z,5.84
2023-03-30T16:29:23.672Z,5.79
2023-03-30T16:31:58.825Z,6.16
2023-03-30T16:34:32.686Z,5.94
2023-03-30T16:37:05.909Z,5.70
2023-03-30T16:39:39.710Z,5.79
2023-03-30T16:42:15.047Z,4.52
2023-03-30T16:55:03.617Z,1.06
2023-03-30T16:57:45.684Z,0.85
2023-03-30T17:00:25.021Z,0.93
2023-03-30T17:03:05.775Z,0.76
2023-03-30T17:05:55.025Z,0.54
2023-03-30T17:22:17.660Z,0.53
2023-03-30T17:24:50.943Z,0.63
2023-03-30T17:27:24.820Z,0.71
2023-03-30T17:29:57.903Z,0.87
2023-03-30T17:32:31.690Z,0.92
2023-03-30T17:49:08.644Z,1.01
2023-03-30T17:51:48.660Z,1.20
2023-03-30T17:54:21.986Z,1.08
2023-03-30T17:56:55.702Z,1.14
2023-03-30T17:59:28.946Z,1.18
2023-03-30T18:02:07.813Z,1.10
2023-03-30T18:15:20.657Z,0.89
2023-03-30T18:17:55.963Z,0.85
2023-03-30T18:20:34.650Z,0.81
2023-03-30T18:23:08.441Z,0.75
2023-03-30T18:25:41.636Z,0.83
2023-03-30T18:42:05.639Z,0.96
2023-03-30T18:44:45.687Z,0.98
2023-03-30T18:47:19.255Z,0.95
2023-03-30T18:49:52.660Z,1.02
2023-03-30T18:52:25.873Z,0.97
2023-03-30T18:54:59.661Z,1.08
2023-03-30T18:57:35.015Z,1.06
2023-03-30T19:07:03.688Z,1.11
2023-03-30T19:09:43.142Z,1.03
2023-03-30T19:12:23.751Z,1.10
2023-03-30T19:14:58.795Z,1.26
2023-03-30T19:17:31.654Z,1.15
2023-03-30T19:20:07.177Z,1.28
2023-03-30T19:22:43.905Z,1.18
2023-03-30T19:35:55.819Z,1.32
2023-03-30T19:38:28.892Z,1.23
2023-03-30T19:41:06.933Z,1.27
2023-03-30T19:43:40.924Z,1.38
2023-03-30T19:46:14.727Z,1.27
2023-03-30T20:02:54.733Z,1.27
2023-03-30T20:05:34.680Z,1.25
2023-03-30T20:08:20.905Z,1.27
2023-03-30T20:11:03.929Z,1.46
2023-03-30T20:13:38.208Z,1.33
2023-03-30T20:16:14.178Z,1.55
2023-03-30T20:29:26.651Z,1.38
2023-03-30T20:31:59.979Z,1.41
2023-03-30T20:34:38.637Z,1.23
2023-03-30T20:37:12.204Z,1.28
2023-03-30T20:39:53.267Z,1.45
2023-03-30T20:42:27.010Z,1.43
2023-03-30T20:54:39.608Z,1.27
2023-03-30T20:57:19.682Z,1.16
2023-03-30T20:59:53.011Z,1.13
2023-03-30T21:02:27.127Z,1.15
2023-03-30T21:05:02.147Z,1.10
2023-03-30T21:07:35.642Z,1.18
2023-03-30T21:20:52.730Z,1.14
2023-03-30T21:23:26.186Z,1.17
2023-03-30T21:26:04.817Z,1.17
2023-03-30T21:28:38.696Z,1.12
2023-03-30T21:31:14.714Z,1.11
2023-03-30T21:33:48.246Z,1.17
2023-03-30T21:36:23.722Z,0.96
2023-03-30T21:49:33.642Z,1.11
2023-03-30T21:52:08.836Z,1.03
2023-03-30T21:54:42.621Z,0.96
2023-03-30T21:57:15.870Z,0.96
2023-03-30T21:59:49.642Z,1.10
2023-03-30T22:02:23.207Z,1.02
2023-03-30T22:15:14.614Z,1.07
2023-03-30T22:17:54.687Z,1.02
2023-03-30T22:20:28.474Z,0.99
2023-03-30T22:23:02.752Z,1.06
2023-03-30T22:25:35.987Z,1.01
2023-03-30T22:28:09.634Z,1.06
2023-03-30T22:41:22.670Z,0.94
2023-03-30T22:43:57.790Z,1.03
2023-03-30T22:46:33.275Z,1.03
2023-03-30T22:49:06.852Z,1.11
2023-03-30T22:51:40.644Z,1.02
2023-03-30T22:54:13.865Z,1.20
2023-03-30T22:56:50.659Z,1.14
2023-03-30T23:10:00.662Z,1.45
2023-03-30T23:12:35.923Z,1.30
2023-03-30T23:15:09.632Z,1.22
2023-03-30T23:17:42.987Z,1.01
2023-03-30T23:20:17.625Z,1.20
2023-03-30T23:22:50.914Z,1.15
2023-03-30T23:35:41.601Z,1.30
2023-03-30T23:38:21.629Z,1.21
2023-03-30T23:40:56.331Z,1.12
2023-03-30T23:43:29.641Z,1.31
2023-03-30T23:46:03.139Z,1.46
